Leawood, Kansas
Current Conditions -  °F | °C
As of 1:53 AM on Thursday 29 Jan 2015 (Local Time) from KOJC Reporting Station
Clear Clear  
Wind Chill: 42°   Ceiling: Unl
Heat Index: 48°   Visibility: 10mi
Dew Point: 37°   Wind: 17mph
Humidity: 66%   Direction: 320°NW
Pressure: 29.95"   Gusts: 24mph
Location:  38.92°N, 94.64°W
Report Text: KOJC 290753Z AUTO 32015G21KT 10SM CLR 09/03 A2995 RMK AO2 PK WND 33028/0713 SLP136 T00890028
Loading
Personal Weather Stations






























Interactive Weather Map New forecast layout! Learn more

10-Day Weather Forecast

Advertisements
Track Severe Weather on mobile